Latest Weather Observations for Green Cape

IDN60801

Issued at 6:32 am EST Sunday 19 April 2015 (issued every 30 minutes, with the page automatically refreshed every 10 minutes)

About weather observations | Map of weather stations | Latest weather observations for NSW | Other Formats
Station Details ID: 069137 Name: GREEN CAPE AWS Lat: -37.26 Lon: 150.05 Height: 19.4 m
Data from the previous 72 hours. | See also: Recent months at Green Cape
Date/Time
EST
Temp
°C
App
Temp
°C
Dew
Point
Rel
Hum
%
Delta-T
°C
Wind Press
QNH
hPa
Press
MSL
hPa
Rain
since 9 am
mm
Dir
 
Spd
km/h
Gust
km/h
Spd
kts
Gust
kts
19/06:30am 13.5 5.0 9.4 76 2.1 WSW 44 56 24 30 1017.0 1017.0 5.8
19/06:00am 13.8 6.9 10.2 79 1.9 WSW 37 50 20 27 1016.8 1016.8 5.8
19/05:30am 14.1 7.7 10.7 80 1.8 SW 35 43 19 23 1016.3 1016.3 5.8
19/05:00am 14.1 6.0 10.7 80 1.8 SW 44 54 24 29 1015.8 1015.8 5.8
19/04:30am 14.4 6.7 11.4 82 1.6 WSW 43 54 23 29 1015.4 1015.4 5.8
19/04:00am 14.8 8.0 12.1 84 1.5 WSW 39 50 21 27 1015.0 1015.0 5.8
19/03:30am 15.3 9.0 12.2 82 1.7 WSW 37 46 20 25 1014.5 1014.5 5.8
19/03:00am 16.2 9.4 13.1 82 1.7 SW 41 46 22 25 1013.9 1013.9 5.8
19/02:30am 16.8 11.4 12.9 78 2.2 SW 33 41 18 22 1013.9 1013.9 5.8
19/02:00am 17.5 13.3 12.4 72 2.8 WSW 26 33 14 18 1013.8 1013.8 5.8
19/01:30am 16.2 12.2 13.1 82 1.7 WSW 26 33 14 18 1013.5 1013.5 5.8
19/01:00am 16.0 12.3 12.7 81 1.8 W 24 32 13 17 1013.3 1013.3 5.8
19/12:30am 16.1 14.6 13.0 82 1.7 S 13 15 7 8 1013.0 1013.0 5.8
19/12:00am 16.0 12.2 12.4 79 2.0 WSW 24 30 13 16 1013.0 1013.0 5.8
 
Date/Time
EST
Temp
°C
App
Temp
°C
Dew
Point
Rel
Hum
%
Delta-T
°C
Wind Press
QNH
hPa
Press
MSL
hPa
Rain
since 9 am
mm
Dir
 
Spd
km/h
Gust
km/h
Spd
kts
Gust
kts
18/11:30pm 16.1 11.7 13.0 82 1.7 W 28 39 15 21 1013.1 1013.1 5.8
18/11:24pm 16.1 12.2 13.4 84 1.5 W 26 35 14 19 1012.9 1012.9 5.8
18/11:00pm 16.0 9.3 15.2 95 0.5 SW 44 56 24 30 1012.4 1012.4 5.8
18/10:59pm 16.0 9.3 15.2 95 0.5 SW 44 56 24 30 1012.3 1012.3 5.8
18/10:30pm 17.1 11.2 16.6 97 0.3 SSW 43 46 23 25 1011.7 1011.7 5.4
18/10:00pm 17.7 14.9 17.2 97 0.3 SSW 28 32 15 17 1011.9 1011.9 5.4
18/09:30pm 17.8 17.8 17.3 97 0.3 SSW 13 15 7 8 1011.8 1011.8 5.2
18/09:00pm 17.8 17.5 17.3 97 0.3 SW 15 17 8 9 1012.0 1012.0 4.8
18/08:30pm 17.8 18.9 17.2 96 0.4 W 7 9 4 5 1011.8 1011.8 4.0
18/08:00pm 17.8 17.4 17.2 96 0.4 SSW 15 19 8 10 1011.7 1011.7 2.4
18/07:30pm 17.8 15.7 17.2 96 0.4 SW 24 28 13 15 1011.9 1011.9 1.4
18/07:00pm 18.2 15.4 17.4 95 0.5 S 28 32 15 17 1011.3 1011.3 0.8
18/06:30pm 18.6 14.9 17.4 93 0.7 S 33 39 18 21 1010.6 1010.6 0.0
18/06:00pm 18.7 14.3 17.5 93 0.7 S 37 44 20 24 1009.9 1009.9 0.0
18/05:30pm 18.8 14.8 17.5 92 0.8 S 35 41 19 22 1009.7 1009.7 0.0
18/05:00pm 19.3 16.5 17.4 89 1.2 S 28 32 15 17 1009.8 1009.8 0.0
18/04:53pm 19.5 16.8 17.5 88 1.2 S 28 32 15 17 1009.7 1009.7 0.0
18/04:30pm 20.3 21.4 16.7 80 2.2 NW 6 9 3 5 1009.6 1009.6 0.0
18/04:00pm 20.5 21.4 17.5 83 1.8 N 9 15 5 8 1009.6 1009.6 0.0
18/03:30pm 20.4 21.0 17.8 85 1.6 N 11 15 6 8 1009.4 1009.4 0.0
18/03:00pm 20.7 20.0 18.3 86 1.5 N 19 22 10 12 1009.7 1009.7 0.0
18/02:30pm 20.3 20.7 18.2 88 1.3 N 13 17 7 9 1009.8 1009.8 0.0
18/02:00pm 20.3 19.5 17.9 86 1.5 N 19 24 10 13 1009.9 1009.9 0.0
18/01:30pm 20.3 19.5 18.1 87 1.4 N 19 22 10 12 1010.3 1010.3 0.0
18/01:00pm 20.2 19.7 17.8 86 1.5 N 17 22 9 12 1010.6 1010.6 0.0
18/12:30pm 19.7 19.2 17.8 89 1.2 N 17 19 9 10 1011.3 1011.3 0.0
18/12:00pm 19.5 19.8 18.0 91 0.9 N 13 19 7 10 1012.0 1012.0 0.0
18/11:30am 19.4 18.9 17.9 91 0.9 N 17 20 9 11 1012.3 1012.3 0.0
18/11:00am 19.4 17.6 17.9 91 0.9 N 24 30 13 16 1012.2 1012.2 0.0
18/10:30am 19.4 17.2 17.9 91 0.9 N 26 33 14 18 1012.4 1012.4 0.0
18/10:00am 19.2 16.3 17.9 92 0.8 N 30 35 16 19 1012.5 1012.5 0.0
18/09:30am 19.2 15.9 17.9 92 0.8 N 32 37 17 20 1012.5 1012.5 0.0
18/09:00am 19.2 16.3 17.9 92 0.8 N 30 35 16 19 1012.6 1012.6 3.8
18/08:30am 19.4 16.6 18.1 92 0.8 N 30 33 16 18 1012.7 1012.7 3.8
18/08:00am 19.3 16.4 18.0 92 0.8 N 30 35 16 19 1012.9 1012.9 3.8
18/07:30am 19.2 15.6 17.7 91 0.9 N 33 39 18 21 1012.6 1012.6 3.8
18/07:00am 19.2 15.2 17.7 91 0.9 N 35 41 19 22 1012.7 1012.7 3.8
18/06:30am 19.2 14.9 17.9 92 0.8 N 37 41 20 22 1012.5 1012.5 3.8
18/06:00am 19.3 15.6 18.3 94 0.6 N 35 37 19 20 1012.6 1012.6 3.8
18/05:30am 19.4 16.4 18.6 95 0.5 N 32 39 17 21 1012.6 1012.6 3.8
18/05:00am 19.6 15.7 18.8 95 0.5 N 37 46 20 25 1012.8 1012.8 3.8
18/04:30am 20.0 15.5 19.0 94 0.6 N 41 46 22 25 1013.0 1013.0 3.8
18/04:00am 19.9 14.7 18.9 94 0.6 N 44 54 24 29 1012.9 1012.9 3.8
18/03:30am 19.7 14.6 18.7 94 0.6 N 43 50 23 27 1013.1 1013.1 3.8
18/03:00am 19.7 14.1 18.7 94 0.6 N 46 54 25 29 1013.3 1013.3 3.8
18/02:30am 19.6 13.6 18.6 94 0.6 N 48 57 26 31 1013.5 1013.5 3.8
18/02:00am 19.4 13.7 18.6 95 0.5 N 46 56 25 30 1014.1 1014.1 3.6
18/01:30am 19.2 13.8 18.4 95 0.5 N 44 54 24 29 1014.6 1014.6 3.6
18/01:00am 19.3 14.0 18.6 96 0.4 N 44 52 24 28 1014.8 1014.8 3.6
18/12:30am 19.4 13.9 18.9 97 0.3 N 46 57 25 31 1015.0 1015.0 3.4
18/12:00am 19.4 12.7 18.9 97 0.3 N 52 63 28 34 1014.8 1014.8 3.4
 
Date/Time
EST
Temp
°C
App
Temp
°C
Dew
Point
Rel
Hum
%
Delta-T
°C
Wind Press
QNH
hPa
Press
MSL
hPa
Rain
since 9 am
mm
Dir
 
Spd
km/h
Gust
km/h
Spd
kts
Gust
kts
17/11:30pm 19.3 13.0 18.8 97 0.3 N 50 59 27 32 1015.3 1015.3 3.2
17/11:00pm 19.1 13.9 18.4 96 0.4 N 43 50 23 27 1015.7 1015.7 2.8
17/10:30pm 19.1 13.8 18.6 97 0.3 N 44 52 24 28 1015.9 1015.9 2.8
17/10:00pm 19.2 12.4 18.7 97 0.3 N 52 61 28 33 1016.2 1016.2 2.8
17/09:30pm 18.8 14.7 18.3 97 0.3 N 37 44 20 24 1016.8 1016.8 2.6
17/09:00pm 18.6 15.2 18.1 97 0.3 N 33 41 18 22 1017.1 1017.1 2.6
17/08:30pm 18.3 14.9 17.8 97 0.3 N 32 37 17 20 1017.6 1017.6 2.4
17/08:00pm 18.0 15.7 17.5 97 0.3 N 26 32 14 17 1017.9 1017.9 2.2
17/07:30pm 18.7 16.3 18.2 97 0.3 NNE 28 33 15 18 1018.3 1018.3 1.8
17/07:00pm 18.4 14.5 17.8 96 0.4 NNE 35 41 19 22 1018.4 1018.4 1.6
17/06:30pm 17.9 14.1 17.1 95 0.5 N 33 44 18 24 1018.7 1018.7 1.4
17/06:00pm 18.1 13.5 17.1 94 0.6 NNE 37 43 20 23 1018.8 1018.8 1.0
17/05:35pm 18.2 14.9 17.0 93 0.7 NNE 30 48 16 26 1018.8 1018.8 0.8
17/05:30pm 18.1 14.3 16.8 92 0.8 NNE 32 37 17 20 1019.1 1019.1 0.6
17/05:00pm 18.2 14.5 16.9 92 0.8 NNE 32 37 17 20 1019.1 1019.1 0.4
17/04:30pm 17.7 15.0 16.6 93 0.7 NNE 26 37 14 20 1019.0 1019.0 0.2
17/04:00pm 17.1 15.3 15.6 91 0.9 NNE 19 24 10 13 1019.6 1019.6 0.2
17/03:30pm 17.0 14.9 15.3 90 1.0 N 20 24 11 13 1020.4 1020.4 0.2
17/03:00pm 17.2 15.2 15.0 87 1.3 NNE 19 22 10 12 1020.2 1020.2 0.0
17/02:30pm 17.3 15.6 14.6 84 1.6 N 17 20 9 11 1020.8 1020.8 0.0
17/02:00pm 17.4 15.5 14.1 81 1.9 N 17 20 9 11 1021.2 1021.2 0.0
17/01:30pm 17.5 16.3 14.0 80 2.0 N 13 17 7 9 1021.7 1021.7 0.0
17/01:00pm 17.3 16.7 13.4 78 2.2 NNE 9 15 5 8 1022.2 1022.2 0.0
17/12:30pm 17.7 17.7 13.6 77 2.3 NNE 6 11 3 6 1022.9 1022.9 0.0
17/12:00pm 17.7 17.9 13.2 75 2.5 NNE 4 7 2 4 1023.5 1023.5 0.0
17/11:30am 17.2 18.0 12.7 75 2.5 CALM 0 0 0 0 1024.0 1024.0 0.0
17/11:00am 16.8 16.8 12.5 76 2.4 W 4 6 2 3 1024.5 1024.5 0.0
17/10:30am 16.7 15.8 12.5 76 2.3 W 9 13 5 7 1024.7 1024.7 0.0
17/10:00am 16.4 15.4 12.4 77 2.2 W 9 11 5 6 1024.9 1024.9 0.0
17/09:30am 16.2 14.8 12.2 77 2.2 W 11 13 6 7 1025.1 1025.1 0.0
17/09:00am 16.1 14.7 12.3 78 2.1 W 11 15 6 8 1025.4 1025.4 0.0
17/08:30am 15.9 14.2 12.5 80 1.9 W 13 15 7 8 1025.3 1025.3 0.0
17/08:00am 15.9 14.2 12.5 80 1.9 W 13 15 7 8 1025.1 1025.1 0.0
17/07:30am 16.2 14.9 12.4 78 2.1 SW 11 17 6 9 1025.0 1025.0 0.0
17/07:00am 15.9 13.8 12.3 79 2.0 WSW 15 19 8 10 1024.8 1024.8 0.0
17/06:30am 15.9 13.7 12.1 78 2.1 WSW 15 17 8 9 1024.3 1024.3 0.0
17/06:00am 15.8 14.0 12.0 78 2.1 WSW 13 17 7 9 1024.2 1024.2 0.0
17/05:30am 15.7 13.1 12.1 79 2.0 WSW 17 20 9 11 1024.1 1024.1 0.0
17/05:00am 15.8 13.6 12.0 78 2.1 WSW 15 20 8 11 1023.9 1023.9 0.0
17/04:30am 15.7 12.2 12.1 79 2.0 SW 22 26 12 14 1023.5 1023.5 0.0
17/04:00am 15.9 11.7 12.3 79 2.0 SW 26 33 14 18 1023.5 1023.5 0.0
17/03:30am 16.0 11.0 12.2 78 2.1 SSW 30 35 16 19 1023.3 1023.3 0.0
17/03:00am 15.9 12.3 11.9 77 2.2 SW 22 30 12 16 1023.4 1023.4 0.0
17/02:30am 16.0 13.0 11.8 76 2.3 SW 19 22 10 12 1024.0 1024.0 0.0
17/02:00am 16.1 14.0 12.3 78 2.1 SW 15 19 8 10 1024.6 1024.6 0.0
17/01:30am 16.2 12.8 12.4 78 2.1 SSW 22 26 12 14 1024.6 1024.6 0.0
17/01:00am 16.4 13.0 12.6 78 2.1 SSW 22 28 12 15 1024.7 1024.7 0.0
17/12:30am 16.4 12.5 12.2 76 2.3 SW 24 32 13 17 1024.9 1024.9 0.0
17/12:00am 16.3 11.7 12.3 77 2.2 SW 28 35 15 19 1024.9 1024.9 0.0
 
Date/Time
EST
Temp
°C
App
Temp
°C
Dew
Point
Rel
Hum
%
Delta-T
°C
Wind Press
QNH
hPa
Press
MSL
hPa
Rain
since 9 am
mm
Dir
 
Spd
km/h
Gust
km/h
Spd
kts
Gust
kts
16/11:30pm 16.5 11.3 12.7 78 2.1 SW 32 37 17 20 1025.0 1025.0 0.0
16/11:00pm 16.4 10.9 12.4 77 2.2 SW 33 37 18 20 1024.7 1024.7 0.0
16/10:30pm 16.6 11.7 12.6 77 2.2 SW 30 33 16 18 1025.0 1025.0 0.0
16/10:00pm 16.6 12.9 12.6 77 2.2 SW 24 33 13 18 1025.0 1025.0 0.0
16/09:30pm 16.7 11.8 12.7 77 2.2 SW 30 33 16 18 1024.6 1024.6 0.0
16/09:00pm 16.8 13.5 12.7 77 2.3 SW 22 26 12 14 1024.7 1024.7 0.0
16/08:30pm 16.9 12.4 12.6 76 2.4 SW 28 33 15 18 1024.3 1024.3 0.0
16/08:00pm 17.1 12.0 13.2 78 2.2 SW 32 37 17 20 1024.0 1024.0 0.0
16/07:30pm 17.1 12.0 13.0 77 2.3 SW 32 35 17 19 1023.2 1023.2 0.0
16/07:00pm 17.3 12.8 13.8 80 2.0 SSW 30 35 16 19 1023.4 1023.4 0.0
16/06:30pm 17.6 14.5 13.5 77 2.3 SW 22 30 12 16 1023.3 1023.3 0.0
16/06:00pm 17.9 13.5 14.0 78 2.2 SW 30 39 16 21 1022.5 1022.5 0.0
16/05:30pm 17.9 13.0 13.8 77 2.3 SW 32 37 17 20 1022.2 1022.2 0.0
16/05:00pm 18.1 14.0 14.8 81 1.9 SSW 30 39 16 21 1022.0 1022.0 0.0
16/04:30pm 18.1 12.6 14.6 80 2.0 SSW 37 43 20 23 1021.3 1021.3 0.0
16/04:00pm 18.7 12.8 14.8 78 2.3 SSW 39 48 21 26 1021.1 1021.1 0.0
16/03:30pm 19.2 11.4 14.2 73 2.9 SSW 48 56 26 30 1020.5 1020.5 0.0
16/03:00pm 19.1 11.4 14.4 74 2.7 SSW 48 56 26 30 1020.4 1020.4 0.0
16/02:30pm 18.8 11.7 13.9 73 2.8 SW 44 54 24 29 1020.9 1020.9 0.0
16/02:00pm 19.4 11.7 14.4 73 2.9 SSW 48 56 26 30 1020.6 1020.6 0.0
16/01:30pm 20.4 14.5 14.7 70 3.3 SSW 39 46 21 25 1021.0 1021.0 0.0
16/01:00pm 20.1 15.2 15.3 74 2.8 SSW 35 43 19 23 1020.8 1020.8 0.0
16/12:30pm 20.9 15.9 15.0 69 3.5 SW 35 44 19 24 1021.1 1021.1 0.0
16/12:00pm 20.9 16.2 14.8 68 3.6 SW 33 41 18 22 1021.5 1021.5 0.0
16/11:30am 20.6 15.9 14.9 70 3.4 SW 33 41 18 22 1021.8 1021.8 0.0
16/11:00am 20.6 18.1 15.2 71 3.2 SSW 22 32 12 17 1021.7 1021.7 0.0
16/10:30am 20.4 18.1 15.6 74 2.9 SSW 22 28 12 15 1021.6 1021.6 0.0
16/10:00am 19.9 17.4 15.1 74 2.8 SW 22 30 12 16 1021.7 1021.7 0.0
16/09:30am 19.7 17.7 15.4 76 2.5 SSW 20 24 11 13 1021.9 1021.9 0.0
16/09:00am 19.4 17.2 14.9 75 2.6 SW 20 28 11 15 1021.9 1021.9 2.8
16/08:30am 19.0 16.9 15.1 78 2.3 SSW 20 24 11 13 1021.7 1021.7 2.8
16/08:00am 18.4 15.5 15.1 81 1.9 SSW 24 28 13 15 1021.4 1021.4 2.8
16/07:30am 18.5 14.1 14.2 76 2.5 WSW 30 35 16 19 1021.2 1021.2 2.8
16/07:00am 18.6 15.1 14.5 77 2.4 WSW 26 32 14 17 1020.6 1020.6 2.8

Other Formats:

Comma delimited format used in spreadsheet applications
http://www.bom.gov.au/fwo/IDN60801/IDN60801.94934.axf

JavaScript Object Notation format (JSON) in row-major order
http://www.bom.gov.au/fwo/IDN60801/IDN60801.94934.json